Time;durP1;ratioP1;P1;durP2;ratioP2;P2;SDS_P1;SDS_P2;PMS_P1;PMS_P2;Temp;Humidity;BMP_temperature;BMP_pressure;BME280_temperature;BME280_humidity;BME280_pressure;Samples;Min_cycle;Max_cycle;Signal;HPM_P1;HPM_P2
2023/01/25 00:00:38;;;;;;;35.65;20.85;;;;;;;0.19;80.01;101775.27;1762567;81;21199;-81
2023/01/25 00:03:44;;;;;;;31.48;19.07;;;;;;;0.41;79.83;101771.03;1761103;81;21200;-81
2023/01/25 00:06:49;;;;;;;35.78;20.52;;;;;;;0.73;78.44;101772.12;1761052;79;21204;-80
2023/01/25 00:09:56;;;;;;;45.08;19.67;;;;;;;0.51;78.89;101771.44;1760902;81;21180;-80
2023/01/25 00:13:03;;;;;;;41.65;20.10;;;;;;;0.51;79.14;101771.44;1762425;81;21248;-81
2023/01/25 00:16:11;;;;;;;34.83;18.70;;;;;;;0.37;79.62;101774.81;1762425;81;21200;-81
2023/01/25 00:19:17;;;;;;;45.67;19.80;;;;;;;0.70;78.88;101769.56;1761005;81;21224;-80
2023/01/25 00:22:23;;;;;;;32.85;18.65;;;;;;;0.50;78.58;101767.88;1760955;81;21196;-80
2023/01/25 00:25:29;;;;;;;38.38;20.23;;;;;;;0.90;77.89;101760.97;1761045;81;21251;-81
2023/01/25 00:28:35;;;;;;;40.92;17.75;;;;;;;0.58;78.54;101762.61;1761743;81;21196;-83
2023/01/25 00:31:57;;;;;;;25.35;15.63;;;;;;;0.49;78.81;101767.97;1762402;81;21181;-83
2023/01/25 00:35:05;;;;;;;30.70;17.35;;;;;;;0.62;78.67;101754.30;1738911;81;21283;-82
2023/01/25 00:38:05;;;;;;;40.23;17.05;;;;;;;0.56;78.42;101753.71;1761911;81;21224;-81
2023/01/25 00:40:58;;;;;;;39.92;17.00;;;;;;;0.45;78.70;101750.22;1736518;81;21200;-80
2023/01/25 00:44:04;;;;;;;40.85;19.32;;;;;;;0.60;78.34;101755.30;1762444;81;21152;-80
2023/01/25 00:47:10;;;;;;;39.38;19.00;;;;;;;0.79;77.73;101754.77;1760859;81;21200;-81
2023/01/25 00:50:16;;;;;;;36.33;17.37;;;;;;;0.79;77.81;101743.99;1761241;81;21801;-80
2023/01/25 00:53:22;;;;;;;34.85;17.55;;;;;;;0.78;77.99;101741.39;1759752;81;21196;-81
2023/01/25 00:56:28;;;;;;;40.08;17.82;;;;;;;0.88;77.62;101738.61;1759446;81;21176;-81
2023/01/25 00:59:34;;;;;;;38.05;17.55;;;;;;;0.58;78.00;101735.20;1758313;81;21231;-81
2023/01/25 01:02:40;;;;;;;34.33;18.15;;;;;;;0.59;78.52;101739.63;1759665;81;21267;-81
2023/01/25 01:05:45;;;;;;;34.98;17.92;;;;;;;0.33;79.71;101740.95;1758471;81;21220;-80
2023/01/25 01:08:52;;;;;;;31.50;18.62;;;;;;;0.38;80.02;101734.86;1759073;81;21311;-82
2023/01/25 01:11:59;;;;;;;33.35;17.57;;;;;;;0.41;80.13;101743.23;1759707;81;21196;-83
2023/01/25 01:15:06;;;;;;;33.67;17.40;;;;;;;0.37;80.16;101744.34;1735345;81;21193;-81
2023/01/25 01:18:12;;;;;;;43.65;19.60;;;;;;;0.15;80.74;101739.16;1758132;81;21751;-83
2023/01/25 01:21:19;;;;;;;44.40;22.52;;;;;;;0.17;81.09;101734.56;1758345;81;21224;-83
2023/01/25 01:24:26;;;;;;;41.28;19.52;;;;;;;0.09;81.32;101734.92;1759583;81;21750;-83
2023/01/25 01:27:32;;;;;;;31.93;18.67;;;;;;;0.17;81.34;101730.52;1758295;81;21232;-83
2023/01/25 01:30:38;;;;;;;40.03;19.20;;;;;;;-0.01;81.95;101731.80;1757901;81;21181;-81
2023/01/25 01:33:45;;;;;;;36.83;19.45;;;;;;;0.16;81.80;101736.38;1734880;81;21212;-81
2023/01/25 01:36:50;;;;;;;38.55;17.87;;;;;;;0.23;81.40;101731.08;1758283;81;21270;-81
2023/01/25 01:39:58;;;;;;;35.35;21.75;;;;;;;0.30;81.23;101728.11;1758702;81;21224;-79
2023/01/25 01:43:07;;;;;;;35.88;18.85;;;;;;;0.31;80.89;101724.47;1759625;81;21200;-81
2023/01/25 01:46:30;;;;;;;36.75;18.87;;;;;;;0.44;80.77;101722.43;1759325;81;21746;-81
2023/01/25 01:49:38;;;;;;;39.70;17.92;;;;;;;0.47;80.69;101717.34;1758722;81;21205;-81
2023/01/25 01:52:45;;;;;;;31.30;16.90;;;;;;;0.57;80.38;101717.31;1758669;81;21223;-81
2023/01/25 01:55:44;;;;;;;39.53;17.82;;;;;;;0.60;80.17;101718.95;1758166;81;21240;-81
2023/01/25 01:58:50;;;;;;;36.65;17.90;;;;;;;0.35;80.48;101703.17;1759487;81;21204;-81
2023/01/25 02:01:57;;;;;;;34.90;17.82;;;;;;;0.30;80.32;101707.92;1757995;81;21713;-81
2023/01/25 02:05:05;;;;;;;33.92;18.00;;;;;;;0.32;80.49;101703.32;1759443;81;21231;-80
2023/01/25 02:08:12;;;;;;;31.82;17.87;;;;;;;0.39;80.47;101703.42;1759504;81;21778;-79
2023/01/25 02:11:20;;;;;;;32.93;18.10;;;;;;;0.43;80.42;101707.72;1757875;81;21268;-81
2023/01/25 02:14:25;;;;;;;32.00;17.75;;;;;;;0.74;79.65;101699.78;1759612;81;21196;-80
2023/01/25 02:17:39;;;;;;;37.70;19.27;;;;;;;0.80;78.99;101693.68;1759673;81;21236;-81
2023/01/25 02:20:47;;;;;;;36.45;18.37;;;;;;;0.83;78.88;101686.80;1758089;81;21152;-81
2023/01/25 02:24:11;;;;;;;29.60;16.93;;;;;;;0.84;78.94;101684.49;1759448;81;21193;-81
2023/01/25 02:27:18;;;;;;;34.65;18.07;;;;;;;0.37;80.42;101682.42;1759394;81;21192;-81
2023/01/25 02:30:23;;;;;;;35.25;18.90;;;;;;;0.71;79.63;101679.77;1758106;81;21502;-81
2023/01/25 02:33:34;;;;;;;37.42;18.15;;;;;;;0.93;78.53;101681.31;1759032;81;21224;-79
2023/01/25 02:36:41;;;;;;;34.38;17.95;;;;;;;0.88;78.49;101678.00;1759084;81;22462;-80
2023/01/25 02:39:48;;;;;;;34.40;18.32;;;;;;;0.83;78.61;101678.23;1759169;81;21786;-79
2023/01/25 02:42:54;;;;;;;35.98;20.45;;;;;;;0.84;78.60;101675.06;1759706;81;21192;-80
2023/01/25 02:46:09;;;;;;;37.42;19.05;;;;;;;1.00;77.99;101676.88;1759247;81;21196;-81
2023/01/25 02:49:15;;;;;;;31.00;16.02;;;;;;;1.01;78.01;101678.61;1759379;81;21188;-81
2023/01/25 02:52:20;;;;;;;37.63;19.80;;;;;;;1.05;78.34;101685.20;1758635;81;21208;-81
2023/01/25 02:55:26;;;;;;;44.67;18.90;;;;;;;1.02;78.10;101683.05;1759437;81;21196;-81
2023/01/25 02:58:33;;;;;;;40.75;20.43;;;;;;;0.82;78.88;101685.06;1759278;81;21192;-80
2023/01/25 03:01:41;;;;;;;32.17;18.57;;;;;;;0.82;79.08;101682.37;1757887;81;21263;-79
2023/01/25 03:04:46;;;;;;;37.15;19.90;;;;;;;1.16;78.30;101686.35;1759359;81;21731;-80
2023/01/25 03:07:52;;;;;;;31.10;17.60;;;;;;;1.19;78.08;101680.80;1758250;81;21381;-80
2023/01/25 03:10:58;;;;;;;44.67;19.92;;;;;;;0.98;78.62;101680.11;1758551;81;21244;-81
2023/01/25 03:14:04;;;;;;;36.05;18.67;;;;;;;1.04;78.21;101676.25;1759453;81;21192;-81
2023/01/25 03:17:10;;;;;;;39.90;18.52;;;;;;;1.09;78.17;101680.91;1759247;81;21196;-81
2023/01/25 03:20:18;;;;;;;36.80;18.50;;;;;;;0.95;78.38;101682.99;1759292;81;21200;-82
2023/01/25 03:23:23;;;;;;;34.38;19.23;;;;;;;0.91;78.60;101684.58;1759844;81;21834;-85
2023/01/25 03:26:30;;;;;;;37.10;17.95;;;;;;;0.98;78.74;101685.98;1759347;81;21204;-82
2023/01/25 03:29:38;;;;;;;34.35;18.98;;;;;;;1.01;78.38;101682.66;1759711;81;21762;-81
2023/01/25 03:32:45;;;;;;;47.08;18.70;;;;;;;0.97;78.40;101690.50;1759429;81;21188;-80
2023/01/25 03:35:51;;;;;;;38.08;17.45;;;;;;;1.00;78.12;101680.92;1758002;81;21192;-80
2023/01/25 03:38:57;;;;;;;42.85;18.55;;;;;;;0.99;78.20;101679.19;1758081;81;21770;-83
2023/01/25 03:42:07;;;;;;;36.70;18.52;;;;;;;0.96;78.38;101684.73;1757806;81;21251;-80
2023/01/25 03:45:13;;;;;;;36.63;18.00;;;;;;;0.79;78.51;101688.77;1759320;81;21240;-80
2023/01/25 03:48:18;;;;;;;36.25;18.87;;;;;;;0.68;79.15;101688.47;1759549;81;21236;-80
2023/01/25 03:51:24;;;;;;;39.83;19.32;;;;;;;0.65;79.90;101685.45;1758791;81;21192;-80
2023/01/25 03:54:30;;;;;;;34.65;18.82;;;;;;;0.71;80.09;101685.63;1758712;81;21224;-81
2023/01/25 03:57:35;;;;;;;34.80;18.55;;;;;;;1.15;78.47;101690.48;1759474;81;21715;-80
2023/01/25 04:00:41;;;;;;;46.23;19.87;;;;;;;0.97;78.54;101693.67;1759098;81;21295;-82
2023/01/25 04:03:48;;;;;;;40.12;18.95;;;;;;;1.08;78.53;101699.36;1758164;81;21255;-82
2023/01/25 04:06:53;;;;;;;37.90;19.75;;;;;;;1.00;78.38;101687.66;1758090;81;21141;-82
2023/01/25 04:10:00;;;;;;;36.13;20.00;;;;;;;1.08;78.12;101697.14;1759330;81;21782;-82
2023/01/25 04:13:09;;;;;;;41.40;19.77;;;;;;;0.95;78.37;101693.77;1759356;81;21208;-82
2023/01/25 04:16:16;;;;;;;37.83;19.12;;;;;;;0.97;78.45;101693.67;1759351;81;21185;-82
2023/01/25 04:19:24;;;;;;;34.27;14.80;;;;;;;1.01;78.64;101687.17;1757453;81;21715;-82
2023/01/25 04:22:33;;;;;;;47.73;20.88;;;;;;;1.08;78.95;101687.70;1758066;81;21224;-82
2023/01/25 04:25:40;;;;;;;36.63;19.55;;;;;;;1.09;79.07;101686.78;1759548;81;21196;-81
2023/01/25 04:28:47;;;;;;;43.15;20.95;;;;;;;1.27;78.49;101682.62;1759471;81;22463;-82
2023/01/25 04:31:53;;;;;;;34.15;18.65;;;;;;;1.46;77.87;101687.01;1757978;81;21965;-82
2023/01/25 04:38:12;;;;;;;35.85;20.27;;;;;;;1.44;77.30;101692.46;1816413;79;21268;-81
2023/01/25 04:41:18;;;;;;;52.33;19.92;;;;;;;1.52;77.05;101683.96;1818317;79;21251;-81
2023/01/25 04:44:24;;;;;;;40.20;21.15;;;;;;;1.51;76.62;101691.67;1818654;79;21706;-81
2023/01/25 04:47:29;;;;;;;34.25;19.75;;;;;;;1.42;76.75;101684.08;1818513;79;21176;-80
2023/01/25 04:50:36;;;;;;;38.80;20.88;;;;;;;1.31;77.09;101675.69;1817570;79;21810;-80
2023/01/25 04:53:44;;;;;;;34.25;20.17;;;;;;;1.25;77.22;101683.64;1818428;79;21157;-82
2023/01/25 04:56:44;;;;;;;33.23;18.92;;;;;;;1.40;76.51;101678.75;1818875;79;21219;-81
2023/01/25 04:59:51;;;;;;;54.58;19.27;;;;;;;1.28;76.16;101685.70;1818634;79;21735;-80
2023/01/25 05:02:56;;;;;;;43.40;19.87;;;;;;;0.76;77.17;101681.74;1817359;79;21212;-81
2023/01/25 05:06:02;;;;;;;42.78;19.62;;;;;;;0.79;77.67;101683.86;1817865;79;21224;-81
2023/01/25 05:09:08;;;;;;;44.27;20.72;;;;;;;0.74;77.67;101681.41;1818424;79;21168;-81
2023/01/25 05:12:14;;;;;;;46.88;20.75;;;;;;;0.59;78.07;101683.08;1818035;79;21180;-81
2023/01/25 05:15:21;;;;;;;38.88;19.92;;;;;;;0.54;78.17;101681.10;1818424;79;21164;-82
2023/01/25 05:18:28;;;;;;;37.42;20.17;;;;;;;0.62;78.13;101677.55;1818391;79;21476;-80
2023/01/25 05:25:05;;;;;;;34.65;16.95;;;;;;;0.33;79.06;101693.84;1818375;79;21174;-81
2023/01/25 05:28:12;;;;;;;41.55;18.95;;;;;;;0.22;79.08;101698.39;1818371;79;21477;-80
2023/01/25 05:31:23;;;;;;;40.65;20.27;;;;;;;0.15;78.97;101696.97;1819048;79;21191;-81
2023/01/25 05:34:29;;;;;;;38.73;19.20;;;;;;;0.11;79.44;101693.16;1792146;79;21227;-80
2023/01/25 05:37:35;;;;;;;46.37;21.27;;;;;;;0.29;79.35;101698.11;1777292;80;21195;-81
2023/01/25 05:40:44;;;;;;;37.73;19.97;;;;;;;0.23;79.49;101700.61;1763547;80;21825;-82
2023/01/25 05:43:52;;;;;;;39.53;19.62;;;;;;;0.18;79.94;101696.80;1765766;80;21934;-82
2023/01/25 05:47:00;;;;;;;48.30;19.95;;;;;;;0.05;80.36;101699.72;1781497;80;21192;-80
2023/01/25 05:50:06;;;;;;;34.95;20.43;;;;;;;0.12;80.37;101701.15;1776589;80;21179;-80
2023/01/25 05:53:19;;;;;;;38.98;19.17;;;;;;;-0.14;80.77;101694.81;1777523;80;21200;-81
2023/01/25 05:56:27;;;;;;;42.33;20.72;;;;;;;-0.20;81.46;101700.02;1784185;80;21235;-79
2023/01/25 05:59:33;;;;;;;41.02;19.67;;;;;;;-0.09;81.70;101703.09;1778177;80;21239;-79
2023/01/25 06:02:42;;;;;;;36.93;21.17;;;;;;;0.07;80.95;101699.64;1783367;80;21288;-79
2023/01/25 06:05:49;;;;;;;42.05;20.27;;;;;;;0.25;79.93;101696.91;1780753;80;21197;-81
2023/01/25 06:08:55;;;;;;;45.48;20.77;;;;;;;0.16;80.52;101691.98;1785230;80;21219;-80
2023/01/25 06:11:54;;;;;;;37.67;19.52;;;;;;;0.08;80.47;101699.55;1761948;80;21306;-83
2023/01/25 06:15:00;;;;;;;39.83;21.93;;;;;;;-0.12;81.35;101699.19;1766990;80;21219;-81
2023/01/25 06:18:07;;;;;;;41.28;21.68;;;;;;;0.28;80.97;101699.03;1777298;80;21314;-79
2023/01/25 06:21:27;;;;;;;37.53;20.75;;;;;;;0.07;81.13;101695.13;1779196;80;22290;-81
2023/01/25 06:24:27;;;;;;;43.42;22.40;;;;;;;0.23;81.12;101695.23;1771678;80;21165;-80
2023/01/25 06:27:32;;;;;;;46.77;22.75;;;;;;;0.25;81.22;101699.60;1772786;80;21152;-81
2023/01/25 06:30:37;;;;;;;37.08;20.82;;;;;;;0.32;81.45;101700.63;1772345;80;21172;-80
2023/01/25 06:33:43;;;;;;;70.28;40.78;;;;;;;0.16;82.04;101698.71;1767098;80;21216;-82
2023/01/25 06:36:49;;;;;;;90.03;47.80;;;;;;;0.19;82.37;101695.88;1766800;80;21175;-83
2023/01/25 06:39:56;;;;;;;70.45;35.60;;;;;;;0.04;82.59;101694.40;1755318;80;21188;-81
2023/01/25 06:43:04;;;;;;;45.80;22.73;;;;;;;0.06;83.20;101689.36;1714810;82;21232;-81
2023/01/25 06:46:14;;;;;;;46.20;26.75;;;;;;;0.04;83.69;101693.05;1742173;80;21196;-81
2023/01/25 06:49:19;;;;;;;;;;;;;;;0.19;83.30;101695.88;1761002;81;21173;-81
2023/01/25 06:52:30;;;;;;;49.05;20.10;;;;;;;0.12;83.29;101701.15;1756416;81;21104;-79
2023/01/25 06:55:29;;;;;;;39.23;19.95;;;;;;;0.10;83.68;101707.09;1756162;81;21177;-81
2023/01/25 06:58:37;;;;;;;42.48;19.82;;;;;;;0.02;84.32;101705.72;1754413;81;21173;-80
2023/01/25 07:01:43;;;;;;;50.23;20.45;;;;;;;0.19;83.74;101701.73;1753515;81;21248;-80
2023/01/25 07:04:51;;;;;;;36.35;19.10;;;;;;;0.39;83.52;101699.39;1755937;79;21204;-80
2023/01/25 07:07:58;;;;;;;47.40;20.70;;;;;;;0.33;83.39;101699.67;1750090;81;21216;-83
2023/01/25 07:11:08;;;;;;;44.38;20.32;;;;;;;0.50;82.76;101688.94;1727696;81;21327;-79
2023/01/25 07:14:14;;;;;;;50.28;21.90;;;;;;;0.48;82.58;101694.41;1750823;81;21511;-81
2023/01/25 07:17:19;;;;;;;39.83;20.50;;;;;;;0.69;82.23;101700.50;1746952;80;21251;-80
2023/01/25 07:20:26;;;;;;;38.33;19.40;;;;;;;0.64;82.24;101694.48;1714634;82;21196;-80
2023/01/25 07:23:33;;;;;;;37.25;19.15;;;;;;;0.70;81.83;101702.72;1744697;81;21975;-79
2023/01/25 07:26:38;;;;;;;39.35;19.98;;;;;;;0.74;81.17;101697.57;1744214;81;21227;-82
2023/01/25 07:29:46;;;;;;;35.68;18.42;;;;;;;0.83;81.15;101694.87;1745159;81;21191;-82
2023/01/25 07:32:51;;;;;;;35.50;18.82;;;;;;;0.88;80.77;101699.55;1753709;81;21723;-81
2023/01/25 07:35:57;;;;;;;42.70;19.92;;;;;;;0.83;80.89;101696.23;1755099;81;21609;-79
2023/01/25 07:39:05;;;;;;;40.12;20.77;;;;;;;0.90;80.63;101703.05;1749169;80;21169;-81
2023/01/25 07:42:10;;;;;;;35.33;19.87;;;;;;;0.82;80.28;101697.19;1766960;80;21160;-82
2023/01/25 07:45:18;;;;;;;33.92;18.20;;;;;;;0.80;80.52;101686.95;1772163;80;21154;-81
2023/01/25 07:48:25;;;;;;;36.73;19.17;;;;;;;0.87;80.72;101691.08;1771322;79;21192;-83
2023/01/25 07:51:31;;;;;;;43.95;20.68;;;;;;;0.88;80.83;101687.42;1752467;81;22147;-80
2023/01/25 07:54:36;;;;;;;40.05;18.77;;;;;;;0.97;80.68;101676.16;1769190;80;21174;-81
2023/01/25 07:57:43;;;;;;;38.85;18.00;;;;;;;1.03;80.62;101679.87;1735759;81;21183;-81
2023/01/25 08:00:49;;;;;;;32.30;17.77;;;;;;;1.10;80.32;101682.64;1765268;79;22055;-80
2023/01/25 08:03:49;;;;;;;35.08;17.50;;;;;;;1.09;80.20;101682.26;1723870;81;21212;-81
2023/01/25 08:06:55;;;;;;;47.43;21.25;;;;;;;1.13;79.74;101678.89;1768101;79;21192;-82
2023/01/25 08:10:01;;;;;;;36.63;18.05;;;;;;;1.20;79.74;101681.19;1732442;81;21256;-82
2023/01/25 08:13:08;;;;;;;35.75;18.52;;;;;;;1.37;79.63;101675.38;1718994;81;21274;-79
2023/01/25 08:16:14;;;;;;;39.50;18.70;;;;;;;1.52;79.26;101680.78;1769930;80;22559;-80
2023/01/25 08:19:36;;;;;;;33.63;17.70;;;;;;;1.39;79.66;101682.41;1774784;80;21130;-82
2023/01/25 08:22:41;;;;;;;33.63;17.40;;;;;;;1.34;78.62;101676.88;1749974;81;21283;-80
2023/01/25 08:25:48;;;;;;;39.95;19.27;;;;;;;1.40;78.03;101665.75;1721088;81;21231;-83
2023/01/25 08:28:54;;;;;;;33.98;16.57;;;;;;;1.34;78.37;101667.45;1777773;80;21180;-83
2023/01/25 08:31:59;;;;;;;36.75;16.05;;;;;;;1.36;78.18;101663.69;1768736;79;21174;-83
2023/01/25 08:35:05;;;;;;;31.35;15.83;;;;;;;1.35;78.37;101654.35;1771729;79;21188;-82
2023/01/25 08:38:11;;;;;;;33.95;16.80;;;;;;;1.36;78.40;101658.78;1750853;80;21224;-81
2023/01/25 08:41:22;;;;;;;37.90;16.27;;;;;;;1.44;78.30;101649.80;1733475;81;21900;-81
2023/01/25 08:44:28;;;;;;;45.30;16.55;;;;;;;1.61;78.16;101643.00;1736209;81;21349;-82
2023/01/25 08:47:33;;;;;;;32.65;15.32;;;;;;;1.58;77.95;101647.20;1710970;83;21188;-82
2023/01/25 08:50:39;;;;;;;41.77;16.82;;;;;;;1.79;77.12;101636.56;1746896;81;21161;-81
2023/01/25 08:53:44;;;;;;;36.38;16.35;;;;;;;1.88;76.73;101634.27;1746398;81;21791;-81
2023/01/25 08:56:50;;;;;;;41.28;17.77;;;;;;;2.03;76.72;101629.36;1721022;82;21911;-79
2023/01/25 08:59:56;;;;;;;32.03;15.53;;;;;;;2.18;76.29;101628.94;1711732;83;21200;-81
2023/01/25 09:03:04;;;;;;;36.65;15.72;;;;;;;2.18;76.56;101619.00;1755812;81;21240;-80
2023/01/25 09:06:09;;;;;;;45.00;17.52;;;;;;;2.01;76.42;101614.58;1755419;81;21180;-80
2023/01/25 09:09:15;;;;;;;29.67;17.55;;;;;;;1.92;75.97;101615.11;1708405;82;21208;-82
2023/01/25 09:12:20;;;;;;;42.53;16.85;;;;;;;1.95;76.14;101612.73;1737004;81;21195;-81
2023/01/25 09:15:26;;;;;;;39.67;17.73;;;;;;;1.93;75.46;101615.53;1743720;80;22048;-81
2023/01/25 09:18:31;;;;;;;33.28;16.42;;;;;;;1.87;75.81;101612.30;1744449;80;21160;-81
2023/01/25 09:21:37;;;;;;;31.85;14.45;;;;;;;1.97;75.70;101600.88;1749202;81;22393;-81
2023/01/25 09:24:43;;;;;;;38.08;16.77;;;;;;;1.99;75.79;101592.22;1752947;80;21769;-81
2023/01/25 09:27:52;;;;;;;46.37;16.87;;;;;;;1.98;75.89;101586.93;1755790;79;21209;-82
2023/01/25 09:31:13;;;;;;;37.13;17.73;;;;;;;2.02;76.18;101582.61;1738196;81;21176;-81
2023/01/25 09:34:29;;;;;;;26.17;12.18;;;;;;;2.11;76.33;101575.77;1760310;79;21402;-80
2023/01/25 09:37:23;;;;;;;35.43;17.07;;;;;;;2.06;76.25;101577.88;1761805;81;21184;-81
2023/01/25 09:40:16;;;;;;;33.73;16.57;;;;;;;2.15;76.00;101574.62;1759674;81;21247;-81
2023/01/25 09:43:33;;;;;;;32.20;16.02;;;;;;;2.19;76.02;101573.48;1761241;80;21216;-81
2023/01/25 09:47:06;;;;;;;38.63;16.80;;;;;;;2.17;75.45;101568.68;1763317;80;21192;-82
2023/01/25 09:50:43;;;;;;;36.65;16.85;;;;;;;2.26;75.27;101562.73;1764388;80;21173;-80
2023/01/25 09:54:02;;;;;;;41.70;17.25;;;;;;;2.34;75.36;101562.73;1762656;80;21208;-80
2023/01/25 09:57:07;;;;;;;32.45;15.53;;;;;;;2.28;75.22;101554.04;1763021;80;21249;-81
2023/01/25 10:00:25;;;;;;;44.33;17.50;;;;;;;2.34;76.07;101555.49;1770215;80;21196;-80
2023/01/25 10:03:41;;;;;;;38.10;15.88;;;;;;;2.26;76.38;101555.11;1757181;80;21799;-81
2023/01/25 10:06:49;;;;;;;30.48;15.80;;;;;;;2.24;76.63;101555.18;1759134;80;21212;-82
2023/01/25 10:10:19;;;;;;;30.52;15.93;;;;;;;2.45;76.39;101547.62;1767641;80;21584;-82
2023/01/25 10:13:30;;;;;;;29.45;16.30;;;;;;;2.51;75.63;101542.32;1768098;80;21196;-83
2023/01/25 10:16:44;;;;;;;34.30;16.05;;;;;;;2.42;75.63;101536.13;1759200;80;21220;-81
2023/01/25 10:20:28;;;;;;;34.95;16.35;;;;;;;2.50;76.02;101534.70;1760905;80;21180;-83
2023/01/25 10:24:17;;;;;;;28.65;16.27;;;;;;;2.36;76.01;101544.63;1765911;80;21196;-84
2023/01/25 10:27:51;;;;;;;36.28;16.52;;;;;;;2.53;75.38;101534.98;1756003;80;21204;-83
2023/01/25 10:31:08;;;;;;;92.85;43.33;;;;;;;2.63;75.46;101530.73;1763716;80;21240;-83
2023/01/25 10:34:45;;;;;;;59.33;24.92;;;;;;;2.67;75.00;101526.88;1765696;80;21207;-83
2023/01/25 10:37:59;;;;;;;28.10;14.63;;;;;;;2.75;75.05;101528.63;1756002;80;21878;-82
2023/01/25 10:41:11;;;;;;;33.73;16.25;;;;;;;2.81;74.42;101524.67;1759934;80;21183;-82
2023/01/25 10:44:24;;;;;;;51.18;24.05;;;;;;;2.64;75.32;101519.48;1769232;80;21168;-81
2023/01/25 10:47:42;;;;;;;32.93;15.78;;;;;;;2.92;74.74;101515.91;1774855;80;21285;-81
2023/01/25 10:50:51;;;;;;;27.60;14.73;;;;;;;2.90;75.08;101509.70;1778509;79;21476;-79
2023/01/25 10:54:00;;;;;;;30.52;14.20;;;;;;;3.05;75.11;101510.07;1778896;80;21255;-80
2023/01/25 10:57:06;;;;;;;30.17;15.18;;;;;;;3.10;74.52;101507.94;1690227;82;21211;-80
2023/01/25 11:00:15;;;;;;;35.20;15.45;;;;;;;3.09;74.19;101494.04;1775534;79;21243;-82
2023/01/25 11:03:27;;;;;;;37.17;14.30;;;;;;;3.14;74.10;101495.95;1778897;80;21196;-81
2023/01/25 11:06:49;;;;;;;28.62;15.13;;;;;;;3.27;74.08;101494.68;1782870;80;22621;-80
2023/01/25 11:09:54;;;;;;;28.60;13.13;;;;;;;3.26;73.52;101491.11;1756027;80;21275;-82
2023/01/25 11:13:25;;;;;;;29.37;14.30;;;;;;;3.17;73.71;101497.13;1778771;80;21233;-82
2023/01/25 11:16:37;;;;;;;31.20;13.80;;;;;;;3.21;73.92;101503.20;1744619;80;21752;-82
2023/01/25 11:19:47;;;;;;;31.35;15.72;;;;;;;3.30;73.15;101499.41;1747765;81;21210;-82
2023/01/25 11:23:00;;;;;;;29.32;13.30;;;;;;;3.29;73.29;101499.04;1757930;81;21232;-80
2023/01/25 11:26:22;;;;;;;24.50;11.57;;;;;;;3.35;73.42;101501.81;1739962;81;21184;-83
2023/01/25 11:29:29;;;;;;;30.37;11.85;;;;;;;3.41;72.69;101498.70;1757687;80;21203;-82
2023/01/25 11:35:42;;;;;;;27.77;11.12;;;;;;;3.55;71.36;101511.31;1754979;80;21168;-80
2023/01/25 11:38:59;;;;;;;33.83;12.00;;;;;;;3.34;72.13;101501.44;1756755;80;21850;-83
2023/01/25 11:42:28;;;;;;;20.32;10.55;;;;;;;3.33;71.81;101509.14;1775370;80;21181;-81
2023/01/25 11:45:45;;;;;;;23.80;10.80;;;;;;;3.51;71.30;101504.36;1762086;80;21216;-81
2023/01/25 11:49:19;;;;;;;26.15;11.28;;;;;;;3.28;71.86;101505.39;1761478;80;21180;-80
2023/01/25 11:52:52;;;;;;;20.30;10.90;;;;;;;3.25;72.42;101506.96;1762208;80;21510;-80
2023/01/25 12:00:03;;;;;;;26.87;11.12;;;;;;;3.42;71.10;101505.84;1758237;80;21314;-81
2023/01/25 12:03:15;;;;;;;37.33;11.80;;;;;;;3.35;71.18;101499.59;1749642;80;21232;-82
2023/01/25 12:07:04;;;;;;;22.85;10.30;;;;;;;3.26;71.47;101495.66;1764503;80;21200;-80
2023/01/25 12:10:47;;;;;;;25.02;12.43;;;;;;;3.30;71.52;101495.36;1674869;83;21192;-82
2023/01/25 12:14:20;;;;;;;28.45;11.05;;;;;;;3.17;71.88;101504.37;1692143;80;22528;-83
2023/01/25 12:17:56;;;;;;;31.87;11.05;;;;;;;2.98;72.26;101495.23;1746814;80;21200;-83
2023/01/25 12:21:47;;;;;;;23.38;10.10;;;;;;;3.04;71.68;101487.58;1761286;80;21771;-83
2023/01/25 12:25:22;;;;;;;28.92;10.48;;;;;;;2.92;72.38;101488.88;1754389;80;21193;-79
2023/01/25 12:28:31;;;;;;;24.20;10.05;;;;;;;2.93;72.21;101497.36;1756628;80;21259;-80
2023/01/25 12:31:49;;;;;;;19.60;8.03;;;;;;;2.86;72.45;101484.70;1731245;81;21823;-81
2023/01/25 12:35:01;;;;;;;16.87;9.33;;;;;;;2.95;72.21;101480.55;1757438;80;21778;-82
2023/01/25 12:38:21;;;;;;;25.70;10.00;;;;;;;2.98;72.12;101473.61;1743974;82;21236;-80
2023/01/25 12:41:40;;;;;;;23.22;9.03;;;;;;;2.86;72.54;101470.33;1749432;81;21215;-80
2023/01/25 12:44:56;;;;;;;33.23;10.47;;;;;;;2.91;72.47;101474.47;1756585;81;21152;-80
2023/01/25 12:48:29;;;;;;;19.07;8.03;;;;;;;2.93;72.01;101474.39;1754714;81;21520;-81
2023/01/25 12:51:42;;;;;;;21.10;9.15;;;;;;;3.06;71.75;101468.09;1755375;81;21580;-80
2023/01/25 12:54:49;;;;;;;24.32;10.88;;;;;;;3.04;71.54;101477.25;1747815;81;21167;-82
2023/01/25 12:57:59;;;;;;;31.95;9.30;;;;;;;3.05;70.94;101470.87;1747431;81;21225;-82
2023/01/25 13:01:20;;;;;;;29.12;8.73;;;;;;;3.17;71.01;101472.79;1760117;81;21244;-82
2023/01/25 13:04:37;;;;;;;30.92;10.03;;;;;;;3.05;70.99;101471.73;1748691;81;21215;-82
2023/01/25 13:07:53;;;;;;;16.73;8.38;;;;;;;2.87;71.65;101466.20;1776160;80;21203;-82
2023/01/25 13:11:02;;;;;;;32.98;7.90;;;;;;;2.92;71.67;101468.61;1774767;80;21207;-83
2023/01/25 13:14:43;;;;;;;20.32;8.70;;;;;;;2.92;71.82;101467.25;1759181;81;21622;-82
2023/01/25 13:17:49;;;;;;;19.85;8.70;;;;;;;2.76;72.22;101468.22;1775418;80;21152;-83
2023/01/25 13:20:57;;;;;;;24.85;9.10;;;;;;;2.76;72.14;101467.35;1768422;80;21245;-83
2023/01/25 13:24:27;;;;;;;28.87;7.78;;;;;;;2.70;72.38;101469.10;1767312;80;21212;-82
2023/01/25 13:27:55;;;;;;;25.70;8.20;;;;;;;2.72;72.09;101462.62;1762083;80;21746;-81
2023/01/25 13:31:01;;;;;;;21.10;7.62;;;;;;;2.75;72.32;101454.81;1778489;80;21240;-81
2023/01/25 13:34:06;;;;;;;27.85;8.63;;;;;;;2.69;72.65;101462.84;1768913;79;21235;-82
2023/01/25 13:37:32;;;;;;;20.85;8.73;;;;;;;2.66;72.74;101462.16;1775229;80;21767;-82
2023/01/25 13:40:44;;;;;;;20.48;8.35;;;;;;;2.67;72.60;101455.30;1774356;80;21342;-81
2023/01/25 13:43:53;;;;;;;24.15;9.35;;;;;;;2.55;72.77;101458.30;1778022;80;21199;-83
2023/01/25 13:46:58;;;;;;;22.85;8.30;;;;;;;2.55;72.78;101454.74;1764850;80;21227;-81
2023/01/25 13:50:11;;;;;;;28.47;8.60;;;;;;;2.48;72.94;101457.42;1770846;80;21713;-82
2023/01/25 13:53:28;;;;;;;16.62;8.38;;;;;;;2.39;73.26;101459.34;1771795;80;22531;-83
2023/01/25 13:56:39;;;;;;;20.85;8.10;;;;;;;2.51;73.12;101460.81;1773636;80;21243;-81
2023/01/25 13:59:46;;;;;;;22.90;7.47;;;;;;;2.54;73.08;101456.58;1768756;80;21210;-81
2023/01/25 14:02:59;;;;;;;18.57;7.65;;;;;;;2.47;73.33;101453.86;1758754;81;21200;-81
2023/01/25 14:06:06;;;;;;;18.48;6.80;;;;;;;2.30;73.91;101454.91;1772319;80;21748;-82
2023/01/25 14:09:18;;;;;;;17.70;7.83;;;;;;;2.32;74.16;101456.66;1783200;80;21518;-80
2023/01/25 14:12:47;;;;;;;16.00;7.08;;;;;;;2.29;73.96;101455.01;1785809;80;21245;-82
2023/01/25 14:16:08;;;;;;;22.10;7.45;;;;;;;2.33;74.13;101450.30;1786399;80;21197;-82
2023/01/25 14:19:30;;;;;;;39.15;7.72;;;;;;;2.13;74.52;101444.30;1786644;80;21162;-82
2023/01/25 14:22:40;;;;;;;30.62;7.90;;;;;;;2.29;74.35;101446.42;1786557;80;21158;-81
2023/01/25 14:25:46;;;;;;;;;;;;;;;2.24;74.81;101451.73;1789192;80;21221;-82
2023/01/25 14:28:54;;;;;;;20.40;7.78;;;;;;;2.11;74.86;101447.55;1786365;80;20218;-82
2023/01/25 14:32:00;;;;;;;29.53;8.00;;;;;;;2.04;75.13;101444.38;1787087;80;21170;-81
2023/01/25 14:35:05;;;;;;;24.90;7.55;;;;;;;1.92;75.45;101443.77;1786567;80;21369;-82
2023/01/25 14:38:30;;;;;;;31.68;7.35;;;;;;;1.90;75.56;101451.58;1785229;80;22500;-82
2023/01/25 14:41:46;;;;;;;21.70;7.53;;;;;;;1.79;75.98;101440.97;1786348;80;21177;-82
2023/01/25 14:44:54;;;;;;;28.35;10.58;;;;;;;1.73;76.21;101448.05;1786226;80;21276;-82
2023/01/25 14:48:00;;;;;;;67.00;26.85;;;;;;;1.75;76.06;101450.69;1785166;80;21221;-81
2023/01/25 14:51:25;;;;;;;66.15;25.52;;;;;;;1.66;76.27;101453.45;1785030;80;21768;-79